createdAt,value
2018-09-29T18:37:04.132Z,11.10
2018-09-29T18:39:32.617Z,11.00
2018-09-29T18:42:01.243Z,11.00
2018-09-29T18:44:29.754Z,11.00
2018-09-29T18:46:58.266Z,10.90
2018-09-29T18:49:26.757Z,10.90
2018-09-29T18:51:55.424Z,10.90
2018-09-29T18:54:24.026Z,10.90
2018-09-29T18:56:52.478Z,10.80
2018-09-29T18:59:20.906Z,10.70
2018-09-29T19:01:49.682Z,10.70
2018-09-29T19:04:18.178Z,10.70
2018-09-29T19:06:46.655Z,10.60
2018-09-29T19:09:15.129Z,10.60
2018-09-29T19:11:44.560Z,10.60
2018-09-29T19:14:13.509Z,10.60
2018-09-29T19:16:42.017Z,10.50
2018-09-29T19:19:10.554Z,10.50
2018-09-29T19:21:39.041Z,10.50
2018-09-29T19:24:07.667Z,10.40
2018-09-29T19:26:36.136Z,10.40
2018-09-29T19:29:04.627Z,10.40
2018-09-29T19:31:33.190Z,10.40
2018-09-29T19:34:01.693Z,10.30
2018-09-29T19:36:30.216Z,10.30
2018-09-29T19:38:58.705Z,10.20
2018-09-29T19:41:27.378Z,10.20
2018-09-29T19:43:55.926Z,10.20
2018-09-29T19:46:24.435Z,10.10
2018-09-29T19:48:52.902Z,10.10
2018-09-29T19:51:21.439Z,10.10
2018-09-29T19:53:50.016Z,10.10
2018-09-29T19:56:18.572Z,10.00
2018-09-29T19:58:48.007Z,10.00
2018-09-29T20:01:17.012Z,10.00
2018-09-29T20:03:45.723Z,10.00
2018-09-29T20:06:14.396Z,10.00
2018-09-29T20:08:42.951Z,10.00
2018-09-29T20:11:11.524Z,9.90
2018-09-29T20:13:40.221Z,9.90
2018-09-29T20:16:08.809Z,9.90
2018-09-29T20:18:46.405Z,9.90
2018-09-29T20:21:15.129Z,9.80
2018-09-29T20:23:50.894Z,9.80
2018-09-29T20:26:19.633Z,9.80
2018-09-29T20:28:48.328Z,9.80
2018-09-29T20:31:25.375Z,9.80
2018-09-29T20:33:54.032Z,9.80
2018-09-29T20:36:22.698Z,9.70
2018-09-29T20:38:51.330Z,9.70
2018-09-29T20:41:19.937Z,9.70
2018-09-29T20:43:48.965Z,9.70
2018-09-29T20:46:17.960Z,9.60
2018-09-29T20:48:49.501Z,9.60
2018-09-29T20:51:18.946Z,9.60
2018-09-29T20:53:47.606Z,9.60
2018-09-29T20:56:16.165Z,9.60
2018-09-29T20:58:44.769Z,9.50
2018-09-29T21:01:13.379Z,9.50
2018-09-29T21:03:43.182Z,9.50
2018-09-29T21:06:11.709Z,9.40
2018-09-29T21:08:40.336Z,9.40
2018-09-29T21:11:08.863Z,9.40
2018-09-29T21:13:37.469Z,9.50
2018-09-29T21:16:06.137Z,9.40
2018-09-29T21:18:34.782Z,9.40
2018-09-29T21:21:03.450Z,9.40
2018-09-29T21:23:32.533Z,9.30
2018-09-29T21:26:02.217Z,9.30
2018-09-29T21:28:31.926Z,9.30
2018-09-29T21:31:00.712Z,9.30
2018-09-29T21:33:29.475Z,9.30
2018-09-29T21:35:58.046Z,9.30
2018-09-29T21:38:26.588Z,9.30
2018-09-29T21:40:55.244Z,9.20
2018-09-29T21:43:23.861Z,9.10
2018-09-29T21:45:53.613Z,9.20
2018-09-29T21:48:22.294Z,9.20
2018-09-29T21:50:50.927Z,9.10
2018-09-29T21:53:19.580Z,9.20
2018-09-29T21:55:48.153Z,9.10
2018-09-29T21:58:16.940Z,9.00
2018-09-29T22:00:46.287Z,9.10
2018-09-29T22:03:15.869Z,9.10
2018-09-29T22:05:45.053Z,9.00
2018-09-29T22:08:13.747Z,9.00
2018-09-29T22:10:42.442Z,9.00
2018-09-29T22:13:11.126Z,9.00
2018-09-29T22:15:39.651Z,9.00
2018-09-29T22:18:08.170Z,9.00
2018-09-29T22:20:36.806Z,8.90
2018-09-29T22:23:05.439Z,9.00
2018-09-29T22:25:33.987Z,8.90
2018-09-29T22:28:03.692Z,8.80
2018-09-29T22:30:32.286Z,8.80
2018-09-29T22:33:00.909Z,8.80
2018-09-29T22:35:29.512Z,8.80
2018-09-29T22:37:58.185Z,8.80
2018-09-29T22:40:27.680Z,8.80
2018-09-29T22:42:56.340Z,8.80
2018-09-29T22:45:24.833Z,8.80
2018-09-29T22:47:53.434Z,8.80
2018-09-29T22:50:21.984Z,8.80
2018-09-29T22:52:50.621Z,8.70
2018-09-29T22:55:19.673Z,7.80
2018-09-29T22:57:48.265Z,8.70
2018-09-29T23:00:16.825Z,8.70
2018-09-29T23:02:45.433Z,8.70
2018-09-29T23:05:13.978Z,8.70
2018-09-29T23:07:42.747Z,8.70
2018-09-29T23:10:13.942Z,8.70
2018-09-29T23:12:42.525Z,8.60
2018-09-29T23:15:11.830Z,8.60
2018-09-29T23:17:40.511Z,8.60
2018-09-29T23:20:09.162Z,8.60
2018-09-29T23:22:37.802Z,8.60
2018-09-29T23:25:06.398Z,8.50
2018-09-29T23:27:35.046Z,8.50
2018-09-29T23:30:04.278Z,8.50
2018-09-29T23:32:33.355Z,8.50
2018-09-29T23:35:02.316Z,8.40
2018-09-29T23:37:31.278Z,8.40
2018-09-29T23:40:00.040Z,8.40
2018-09-29T23:42:30.312Z,8.40
2018-09-29T23:44:59.171Z,8.40
2018-09-29T23:47:28.463Z,8.40
2018-09-29T23:49:57.495Z,8.30
2018-09-29T23:52:27.068Z,8.30
2018-09-29T23:54:56.099Z,8.20
2018-09-29T23:57:24.882Z,8.20
2018-09-29T23:59:53.708Z,8.20
